Time;durP1;ratioP1;P1;durP2;ratioP2;P2;SDS_P1;SDS_P2;PMS_P1;PMS_P2;Temp;Humidity;BMP_temperature;BMP_pressure;BME280_temperature;BME280_humidity;BME280_pressure;Samples;Min_cycle;Max_cycle;Signal;HPM_P1;HPM_P2
2023/01/23 00:01:33;;;;;;;14.57;7.15;;;;;;;0.56;73.08;102068.06;4979540;28;20105;-46
2023/01/23 00:03:59;;;;;;;13.88;5.65;;;;;;;0.56;73.51;102073.16;4978151;28;20621;-45
2023/01/23 00:06:26;;;;;;;18.48;8.48;;;;;;;0.53;72.94;102067.88;4977862;28;20474;-47
2023/01/23 00:08:55;;;;;;;13.45;5.90;;;;;;;0.50;73.03;102071.06;4977473;28;20089;-47
2023/01/23 00:11:27;;;;;;;14.48;7.60;;;;;;;0.48;73.29;102080.28;4977715;28;20145;-46
2023/01/23 00:13:55;;;;;;;12.43;7.05;;;;;;;0.48;72.87;102078.59;4985199;28;20058;-45
2023/01/23 00:16:24;;;;;;;14.23;7.47;;;;;;;0.47;72.64;102084.50;4981113;28;20043;-45
2023/01/23 00:18:51;;;;;;;15.27;6.55;;;;;;;0.45;73.21;102083.50;4983703;28;20112;-45
2023/01/23 00:21:21;;;;;;;14.27;6.60;;;;;;;0.46;73.21;102090.38;4985553;28;20616;-45
2023/01/23 00:23:50;;;;;;;12.20;7.07;;;;;;;0.46;73.35;102102.22;4984341;28;20055;-47
2023/01/23 00:26:20;;;;;;;20.92;7.93;;;;;;;0.45;72.99;102091.16;4984222;28;20042;-46
2023/01/23 00:28:48;;;;;;;11.80;5.38;;;;;;;0.45;72.91;102083.50;4984207;28;20058;-46
2023/01/23 00:31:21;;;;;;;18.33;5.90;;;;;;;0.43;73.08;102082.50;4984583;28;20046;-46
2023/01/23 00:33:53;;;;;;;14.18;6.50;;;;;;;0.44;73.18;102079.16;4983005;28;20046;-46
2023/01/23 00:36:19;;;;;;;13.82;6.03;;;;;;;0.43;73.24;102081.59;4979833;28;20105;-45
2023/01/23 00:38:46;;;;;;;12.65;5.97;;;;;;;0.40;73.24;102078.84;4984891;28;20164;-46
2023/01/23 00:41:13;;;;;;;11.60;6.40;;;;;;;0.41;72.32;102068.78;4983144;28;20042;-46
2023/01/23 00:43:39;;;;;;;10.93;5.55;;;;;;;0.39;73.37;102065.22;4983953;28;20149;-46
2023/01/23 00:46:06;;;;;;;11.43;5.85;;;;;;;0.41;72.16;102071.31;4985200;28;20073;-46
2023/01/23 00:48:32;;;;;;;9.15;5.40;;;;;;;0.43;71.96;102062.09;4985421;28;20082;-45
2023/01/23 00:50:59;;;;;;;10.07;4.97;;;;;;;0.44;72.19;102065.53;4987785;28;20809;-45
2023/01/23 00:53:26;;;;;;;10.93;5.47;;;;;;;0.45;72.46;102073.31;4982884;28;20054;-46
2023/01/23 00:55:53;;;;;;;10.88;5.07;;;;;;;0.45;72.70;102073.31;4981762;28;20061;-45
2023/01/23 00:58:20;;;;;;;11.05;4.93;;;;;;;0.45;71.50;102069.88;4984463;28;20043;-46
2023/01/23 01:00:47;;;;;;;10.70;5.68;;;;;;;0.44;72.57;102079.16;4982619;28;20049;-47
2023/01/23 01:03:13;;;;;;;9.57;5.15;;;;;;;0.44;71.61;102071.50;4985075;28;20121;-46
2023/01/23 01:05:40;;;;;;;12.05;5.10;;;;;;;0.44;71.79;102079.16;4983980;28;20100;-46
2023/01/23 01:08:07;;;;;;;6.05;3.38;;;;;;;0.42;72.32;102090.94;4978147;28;20574;-46
2023/01/23 01:10:33;;;;;;;15.18;6.15;;;;;;;0.44;71.67;102097.00;4983981;28;20104;-47
2023/01/23 01:13:01;;;;;;;10.32;5.70;;;;;;;0.43;71.87;102102.00;4983525;28;20120;-47
2023/01/23 01:15:29;;;;;;;15.00;6.53;;;;;;;0.42;71.53;102106.22;4983828;28;20058;-47
2023/01/23 01:17:57;;;;;;;11.88;5.78;;;;;;;0.41;71.81;102104.47;4983413;28;20078;-47
2023/01/23 01:20:26;;;;;;;14.15;6.93;;;;;;;0.42;71.80;102110.44;4982111;28;20057;-45
2023/01/23 01:22:57;;;;;;;13.98;6.47;;;;;;;0.42;71.80;102121.53;4982006;28;20045;-45
2023/01/23 01:25:25;;;;;;;;;;;;;;;0.37;71.84;102117.75;4980070;28;20047;-46
2023/01/23 01:27:52;;;;;;;8.73;4.70;;;;;;;0.37;71.55;102122.84;4982958;28;19929;-47
2023/01/23 01:30:21;;;;;;;11.57;6.25;;;;;;;0.36;72.24;102127.06;4983206;28;20569;-46
2023/01/23 01:32:49;;;;;;;11.68;6.28;;;;;;;0.36;71.52;102127.06;4984795;28;20066;-47
2023/01/23 01:35:18;;;;;;;14.60;6.28;;;;;;;0.36;72.74;102121.06;4984245;28;20042;-46
2023/01/23 01:37:47;;;;;;;11.43;5.53;;;;;;;0.33;72.22;102125.94;4983866;28;20133;-48
2023/01/23 01:40:21;;;;;;;13.52;6.68;;;;;;;0.36;72.32;102131.25;4983198;28;20077;-47
2023/01/23 01:42:56;;;;;;;12.20;6.03;;;;;;;0.35;71.59;102129.50;4982087;28;20454;-46
2023/01/23 01:46:04;;;;;;;18.23;6.93;;;;;;;0.34;71.47;102135.38;4984128;28;20043;-47
2023/01/23 01:54:12;;;;;;;15.55;5.93;;;;;;;0.42;72.37;102130.81;5096974;27;20372;-46
2023/01/23 01:56:47;;;;;;;12.32;5.22;;;;;;;0.43;72.61;102127.50;5041866;28;20072;-45
2023/01/23 01:59:15;;;;;;;10.02;4.25;;;;;;;0.44;71.60;102135.25;5055601;28;20052;-46
2023/01/23 02:01:46;;;;;;;15.10;6.57;;;;;;;0.44;72.54;102130.16;5070752;28;20040;-46
2023/01/23 02:04:14;;;;;;;16.75;5.63;;;;;;;0.44;71.45;102135.25;5077861;28;20072;-45
2023/01/23 02:06:41;;;;;;;12.63;4.68;;;;;;;0.45;72.27;102131.97;5071860;28;20074;-46
2023/01/23 02:09:17;;;;;;;14.63;5.78;;;;;;;0.48;72.31;102137.25;5059005;28;20119;-47
2023/01/23 02:11:44;;;;;;;13.82;5.25;;;;;;;0.51;71.58;102132.38;5056348;28;20492;-45
2023/01/23 02:14:11;;;;;;;14.38;6.00;;;;;;;0.53;71.69;102124.84;5054906;28;20073;-46
2023/01/23 02:16:40;;;;;;;16.23;4.85;;;;;;;0.57;71.87;102131.06;5057438;28;20052;-47
2023/01/23 02:19:21;;;;;;;15.25;5.78;;;;;;;0.56;71.63;102129.28;5058373;28;20132;-45
2023/01/23 02:21:51;;;;;;;13.93;4.43;;;;;;;0.55;72.35;102132.59;5052823;28;20073;-46
2023/01/23 02:24:30;;;;;;;14.65;5.90;;;;;;;0.55;72.21;102137.69;5056031;28;20496;-45
2023/01/23 02:26:56;;;;;;;12.73;5.90;;;;;;;0.56;72.45;102136.91;5057631;28;20060;-46
2023/01/23 02:29:24;;;;;;;11.48;5.15;;;;;;;0.55;72.08;102138.59;5060624;28;20683;-45
2023/01/23 02:31:52;;;;;;;9.98;5.03;;;;;;;0.54;71.38;102146.13;5072729;28;20044;-48
2023/01/23 02:34:21;;;;;;;13.32;5.75;;;;;;;0.54;71.59;102147.00;5071740;28;20041;-46
2023/01/23 02:36:47;;;;;;;11.52;5.13;;;;;;;0.54;72.44;102146.13;5061023;28;20061;-46
2023/01/23 02:39:18;;;;;;;14.85;5.97;;;;;;;0.54;71.83;102146.13;5059916;28;20076;-45
2023/01/23 02:41:47;;;;;;;15.05;6.22;;;;;;;0.55;72.41;102145.34;5058041;28;20052;-45
2023/01/23 02:46:55;;;;;;;14.18;7.38;;;;;;;0.57;72.31;102151.47;5034545;27;20963;-47
2023/01/23 02:49:22;;;;;;;14.43;7.55;;;;;;;0.58;71.35;102148.13;5017104;28;20065;-45
2023/01/23 02:51:50;;;;;;;15.57;7.97;;;;;;;0.58;71.61;102148.13;5023072;28;20127;-45
2023/01/23 02:54:17;;;;;;;16.13;8.88;;;;;;;0.58;71.33;102150.69;5017536;28;20057;-46
2023/01/23 02:56:45;;;;;;;16.13;7.30;;;;;;;0.56;72.33;102154.78;5019393;28;20417;-45
2023/01/23 03:01:59;;;;;;;10.40;6.63;;;;;;;0.50;72.02;102156.13;5015664;28;20053;-46
2023/01/23 03:04:25;;;;;;;13.55;7.30;;;;;;;0.49;71.72;102153.44;5019692;28;20049;-46
2023/01/23 03:06:52;;;;;;;14.15;6.95;;;;;;;0.48;71.98;102147.44;5017927;28;20077;-45
2023/01/23 03:09:19;;;;;;;11.13;4.72;;;;;;;0.49;72.48;102154.34;5013981;28;20537;-45
2023/01/23 03:11:46;;;;;;;15.45;7.95;;;;;;;0.53;71.63;102149.47;5020144;28;20049;-45
2023/01/23 03:14:18;;;;;;;13.82;6.55;;;;;;;0.54;72.22;102146.13;5017712;28;20484;-46
2023/01/23 03:16:49;;;;;;;15.10;7.40;;;;;;;0.54;72.67;102141.91;5026395;28;20053;-46
2023/01/23 03:19:17;;;;;;;16.05;6.93;;;;;;;0.49;72.41;102136.50;5017419;28;20045;-46
2023/01/23 03:21:45;;;;;;;17.17;8.60;;;;;;;0.56;71.95;102139.47;5021778;28;20053;-46
2023/01/23 03:24:13;;;;;;;20.73;9.60;;;;;;;0.55;72.22;102137.69;5021447;28;20046;-45
2023/01/23 03:26:41;;;;;;;14.60;5.95;;;;;;;0.58;71.71;102140.47;5023421;28;20056;-45
2023/01/23 03:32:00;;;;;;;19.73;9.65;;;;;;;0.61;71.83;102126.28;5007186;28;20045;-45
2023/01/23 03:34:27;;;;;;;21.35;9.30;;;;;;;0.62;72.59;102129.72;5018671;28;20461;-45
2023/01/23 03:36:54;;;;;;;19.30;9.48;;;;;;;0.65;71.91;102122.28;5019508;28;20103;-47
2023/01/23 03:42:08;;;;;;;19.38;7.32;;;;;;;0.71;71.76;102125.25;5001638;28;20074;-45
2023/01/23 03:44:35;;;;;;;21.77;9.13;;;;;;;0.74;72.40;102119.50;5011109;28;20042;-46
2023/01/23 03:47:02;;;;;;;21.17;11.05;;;;;;;0.75;72.45;102128.94;5019340;28;20048;-45
2023/01/23 03:49:30;;;;;;;21.15;9.70;;;;;;;0.78;71.70;102129.16;5011987;28;20046;-46
2023/01/23 03:51:56;;;;;;;21.52;7.82;;;;;;;0.83;72.48;102129.47;5000321;28;20058;-46
2023/01/23 03:54:24;;;;;;;20.73;9.82;;;;;;;0.84;72.24;102123.59;5015811;28;20081;-46
2023/01/23 03:56:51;;;;;;;22.75;10.95;;;;;;;0.86;71.58;102122.03;5011553;28;20049;-46
2023/01/23 03:59:17;;;;;;;20.38;10.13;;;;;;;0.89;72.05;102129.91;5003733;28;20085;-46
2023/01/23 04:01:44;;;;;;;23.65;11.00;;;;;;;0.91;71.90;102141.09;4999411;28;20042;-45
2023/01/23 04:04:11;;;;;;;20.92;11.25;;;;;;;0.93;72.74;102137.00;5005839;28;20136;-45
2023/01/23 04:06:38;;;;;;;28.67;11.35;;;;;;;0.95;71.37;102130.31;5008392;28;20088;-46
2023/01/23 04:09:05;;;;;;;28.95;12.85;;;;;;;0.95;72.09;102132.88;5013660;28;20049;-46
2023/01/23 04:11:31;;;;;;;24.10;11.10;;;;;;;0.97;71.32;102133.00;5002514;28;20053;-45
2023/01/23 04:13:58;;;;;;;23.35;11.43;;;;;;;0.97;71.86;102143.19;5005291;28;20456;-46
2023/01/23 04:16:27;;;;;;;17.95;9.63;;;;;;;0.96;72.37;102142.34;5005203;28;20050;-46
2023/01/23 04:18:54;;;;;;;19.65;7.95;;;;;;;0.96;72.45;102141.44;5003851;28;20056;-46
2023/01/23 04:21:21;;;;;;;20.95;10.88;;;;;;;0.95;72.20;102145.63;5006211;28;20136;-45
2023/01/23 04:23:47;;;;;;;20.40;9.23;;;;;;;0.95;72.57;102145.63;5001109;28;20617;-46
2023/01/23 04:26:14;;;;;;;25.13;12.93;;;;;;;0.95;72.12;102134.56;5002577;28;20065;-47
2023/01/23 04:28:41;;;;;;;24.13;11.15;;;;;;;0.96;72.55;102129.56;5004087;28;20080;-46
2023/01/23 04:31:08;;;;;;;22.30;10.93;;;;;;;0.98;71.88;102135.66;5001908;28;21908;-45
2023/01/23 04:33:35;;;;;;;18.98;10.43;;;;;;;1.00;71.89;102139.22;5002610;28;20200;-46
2023/01/23 04:36:03;;;;;;;19.52;10.35;;;;;;;0.97;72.42;102133.88;4999505;28;20069;-47
2023/01/23 04:38:31;;;;;;;23.00;11.30;;;;;;;0.97;72.64;102138.09;5008186;28;20074;-45
2023/01/23 04:40:59;;;;;;;22.38;11.25;;;;;;;0.96;71.85;102142.34;4996057;28;20077;-46
2023/01/23 04:43:25;;;;;;;20.70;7.55;;;;;;;0.95;72.69;102145.63;5006839;28;20928;-46
2023/01/23 04:45:53;;;;;;;24.52;11.73;;;;;;;0.94;72.01;102143.88;5005609;28;20116;-46
2023/01/23 04:48:21;;;;;;;21.52;10.35;;;;;;;0.90;71.65;102141.88;4997173;28;20069;-45
2023/01/23 04:50:49;;;;;;;18.15;8.35;;;;;;;0.90;72.61;102147.00;5000041;28;20325;-46
2023/01/23 04:53:16;;;;;;;23.42;11.20;;;;;;;0.89;71.50;102145.22;5002132;28;20061;-46
2023/01/23 04:55:46;;;;;;;19.08;9.23;;;;;;;0.85;72.31;102133.91;5007430;28;20049;-45
2023/01/23 04:58:13;;;;;;;24.20;10.88;;;;;;;0.84;71.68;102138.91;5011266;28;20058;-46
2023/01/23 05:00:40;;;;;;;17.50;10.18;;;;;;;0.82;72.36;102128.59;5002144;28;20159;-45
2023/01/23 05:03:06;;;;;;;22.10;11.55;;;;;;;0.83;72.69;102130.38;5005758;28;20092;-46
2023/01/23 05:05:33;;;;;;;18.95;9.35;;;;;;;0.80;72.40;102130.13;5002709;28;20073;-45
2023/01/23 05:08:00;;;;;;;18.38;9.75;;;;;;;0.84;72.60;102123.59;5002765;28;20490;-46
2023/01/23 05:10:27;;;;;;;19.25;9.65;;;;;;;0.81;72.46;102123.38;4998585;28;20089;-46
2023/01/23 05:12:53;;;;;;;22.05;9.90;;;;;;;0.79;72.17;102130.03;4997779;28;20141;-47
2023/01/23 05:15:20;;;;;;;21.58;11.18;;;;;;;0.80;72.54;102126.69;5002284;28;20512;-46
2023/01/23 05:17:48;;;;;;;23.20;11.82;;;;;;;0.77;73.02;102129.91;5004513;28;20064;-45
2023/01/23 05:20:15;;;;;;;19.17;9.80;;;;;;;0.82;71.93;102138.81;5004952;28;20053;-45
2023/01/23 05:22:51;;;;;;;19.17;9.77;;;;;;;0.80;71.47;102145.44;5002466;28;20054;-46
2023/01/23 05:25:21;;;;;;;21.35;10.63;;;;;;;0.81;72.94;102141.25;4998772;28;20476;-46
2023/01/23 05:27:48;;;;;;;20.42;9.05;;;;;;;0.80;71.72;102142.91;5004569;28;20049;-46
2023/01/23 05:30:16;;;;;;;17.75;9.40;;;;;;;0.81;72.04;102141.25;5006105;28;20046;-45
2023/01/23 05:32:43;;;;;;;15.15;8.35;;;;;;;0.80;72.33;102145.44;4998404;28;20513;-45
2023/01/23 05:35:10;;;;;;;17.98;8.75;;;;;;;0.77;72.36;102156.31;5003479;28;20045;-45
2023/01/23 05:37:37;;;;;;;15.32;8.15;;;;;;;0.69;72.75;102147.25;4999720;28;20100;-45
2023/01/23 05:40:07;;;;;;;21.00;9.60;;;;;;;0.76;72.52;102149.47;5004321;28;20069;-45
2023/01/23 05:42:34;;;;;;;16.58;8.38;;;;;;;0.76;71.68;102148.56;5003873;28;20054;-46
2023/01/23 05:45:01;;;;;;;18.40;9.80;;;;;;;0.79;71.95;102145.34;5005094;28;20050;-46
2023/01/23 05:47:27;;;;;;;16.05;7.35;;;;;;;0.75;71.97;102132.34;5001954;28;20136;-45
2023/01/23 05:49:54;;;;;;;16.15;8.90;;;;;;;0.74;71.49;102133.16;5003241;28;20465;-45
2023/01/23 05:52:21;;;;;;;22.80;10.02;;;;;;;0.71;72.23;102132.06;5001729;28;20054;-46
2023/01/23 05:54:47;;;;;;;12.20;7.13;;;;;;;0.65;72.58;102137.59;5002669;28;20054;-46
2023/01/23 05:57:14;;;;;;;16.88;7.63;;;;;;;0.62;72.35;102139.94;5004464;28;20087;-46
2023/01/23 05:59:41;;;;;;;14.85;8.65;;;;;;;0.54;71.65;102129.16;5000129;28;20156;-46
2023/01/23 06:02:07;;;;;;;10.70;7.13;;;;;;;0.49;72.28;102128.84;5002114;28;20057;-46
2023/01/23 06:04:34;;;;;;;13.23;5.55;;;;;;;0.52;72.87;102133.28;5004365;28;20132;-46
2023/01/23 06:07:02;;;;;;;13.45;7.45;;;;;;;0.56;71.98;102134.38;5000608;28;20412;-45
2023/01/23 06:09:29;;;;;;;12.13;6.43;;;;;;;0.49;71.51;102128.84;5001440;28;20050;-46
2023/01/23 06:11:56;;;;;;;10.68;6.47;;;;;;;0.45;71.87;102121.75;5003388;28;20050;-46
2023/01/23 06:14:23;;;;;;;13.30;7.13;;;;;;;0.49;71.39;102123.75;4996247;28;20049;-45
2023/01/23 06:16:50;;;;;;;11.70;5.95;;;;;;;0.47;71.29;102124.41;4994554;28;20049;-46
2023/01/23 06:19:16;;;;;;;11.43;7.25;;;;;;;0.40;71.93;102133.25;4991784;28;20054;-45
2023/01/23 06:21:43;;;;;;;15.75;7.40;;;;;;;0.41;72.29;102127.41;4996383;28;20046;-45
2023/01/23 06:24:09;;;;;;;17.98;7.15;;;;;;;0.41;72.49;102139.25;5003741;28;20074;-46
2023/01/23 06:26:36;;;;;;;13.05;6.70;;;;;;;0.40;71.76;102138.38;5007167;28;20038;-45
2023/01/23 06:29:03;;;;;;;9.93;5.18;;;;;;;0.40;71.82;102142.59;4997670;28;20493;-46
2023/01/23 06:31:31;;;;;;;13.50;5.80;;;;;;;0.39;72.00;102146.78;5001466;28;20046;-46
2023/01/23 06:33:58;;;;;;;11.57;6.95;;;;;;;0.38;71.48;102153.53;4999437;28;20137;-45
2023/01/23 06:36:26;;;;;;;14.38;7.13;;;;;;;0.37;71.81;102158.53;5003050;28;20512;-46
2023/01/23 06:38:53;;;;;;;12.25;6.57;;;;;;;0.37;71.96;102149.22;5005633;28;20117;-46
2023/01/23 06:41:20;;;;;;;13.25;6.75;;;;;;;0.35;71.46;102153.34;5005008;28;20050;-45
2023/01/23 06:43:47;;;;;;;12.15;7.25;;;;;;;0.36;72.06;102162.75;5001828;28;20054;-48
2023/01/23 06:46:14;;;;;;;14.40;8.35;;;;;;;0.33;72.47;102167.63;5000098;28;20108;-46
2023/01/23 06:48:41;;;;;;;16.88;7.65;;;;;;;0.32;72.07;102164.97;4998986;28;20557;-46
2023/01/23 06:51:07;;;;;;;13.23;6.45;;;;;;;0.32;72.34;102170.97;5003549;28;20104;-45
2023/01/23 06:53:34;;;;;;;14.52;7.38;;;;;;;0.30;72.43;102166.53;5002234;28;20091;-47
2023/01/23 06:56:04;;;;;;;16.48;8.02;;;;;;;0.28;72.52;102168.06;5005523;28;20045;-46
2023/01/23 06:58:32;;;;;;;20.90;8.88;;;;;;;0.27;71.99;102176.50;5000135;28;20505;-47
2023/01/23 07:00:59;;;;;;;13.65;6.18;;;;;;;0.27;72.02;102181.59;4996847;28;20108;-46
2023/01/23 07:03:26;;;;;;;18.08;9.05;;;;;;;0.22;71.76;102188.88;5000870;28;20219;-47
2023/01/23 07:05:52;;;;;;;19.20;9.35;;;;;;;0.20;72.31;102190.44;5001037;28;20141;-46
2023/01/23 07:08:19;;;;;;;22.48;8.23;;;;;;;0.17;72.25;102193.63;5003751;28;20599;-46
2023/01/23 07:10:48;;;;;;;18.63;9.70;;;;;;;0.16;72.09;102201.19;5003641;28;20049;-47
2023/01/23 07:13:15;;;;;;;21.10;10.50;;;;;;;0.12;72.19;102208.59;4992513;28;20265;-48
2023/01/23 07:15:45;;;;;;;17.65;9.93;;;;;;;0.11;72.41;102216.13;4998103;28;20050;-48
2023/01/23 07:18:12;;;;;;;21.77;11.25;;;;;;;0.09;71.84;102217.66;4997620;28;20413;-46
2023/01/23 07:20:39;;;;;;;19.73;9.77;;;;;;;0.06;72.82;102218.31;4996220;28;20077;-46
2023/01/23 07:23:08;;;;;;;23.55;9.73;;;;;;;0.03;72.28;102218.09;4999420;28;20053;-47
2023/01/23 07:25:35;;;;;;;20.30;9.50;;;;;;;0.01;72.42;102221.28;4999573;28;20049;-46
2023/01/23 07:28:01;;;;;;;20.00;10.45;;;;;;;-0.01;72.46;102222.06;4998187;28;20069;-48
2023/01/23 07:30:28;;;;;;;18.77;10.02;;;;;;;-0.02;71.81;102230.50;5001145;28;20050;-47
2023/01/23 07:32:56;;;;;;;15.98;9.32;;;;;;;-0.03;72.65;102236.34;5000876;28;20052;-47
2023/01/23 07:35:24;;;;;;;20.17;8.95;;;;;;;-0.04;72.02;102236.22;5003923;28;20049;-46
2023/01/23 07:37:50;;;;;;;21.65;10.20;;;;;;;-0.06;72.94;102241.22;5004279;28;20073;-45
2023/01/23 07:40:17;;;;;;;18.40;10.40;;;;;;;-0.05;72.67;102244.66;4999252;28;20449;-46
2023/01/23 07:42:45;;;;;;;22.98;12.40;;;;;;;-0.06;72.75;102243.78;4997217;28;20541;-46
2023/01/23 07:45:12;;;;;;;19.73;10.40;;;;;;;-0.06;72.50;102236.13;5001677;28;20042;-46
2023/01/23 07:47:39;;;;;;;23.23;8.80;;;;;;;-0.06;72.25;102241.22;4988566;28;20053;-46
2023/01/23 07:50:09;;;;;;;28.98;12.23;;;;;;;-0.05;72.20;102245.56;4994910;28;20832;-45
2023/01/23 07:52:35;;;;;;;24.35;11.57;;;;;;;-0.04;72.15;102247.31;5001573;28;20046;-47
2023/01/23 07:55:03;;;;;;;21.67;11.05;;;;;;;-0.03;72.94;102248.22;4996288;28;20042;-46
2023/01/23 07:57:29;;;;;;;22.23;11.15;;;;;;;-0.02;72.78;102249.97;4998843;28;20073;-45
2023/01/23 07:59:56;;;;;;;23.52;11.80;;;;;;;0.00;72.16;102248.47;4995523;28;20061;-46
2023/01/23 08:02:23;;;;;;;20.75;10.50;;;;;;;0.01;72.78;102249.31;4996990;28;20736;-46
2023/01/23 08:04:49;;;;;;;21.95;10.57;;;;;;;0.01;72.18;102250.22;4997822;28;20081;-45
2023/01/23 08:07:16;;;;;;;19.27;7.85;;;;;;;0.02;73.03;102252.00;4997188;28;20133;-47
2023/01/23 08:09:43;;;;;;;27.40;12.32;;;;;;;0.08;73.02;102256.66;4999365;28;20100;-47
2023/01/23 08:12:11;;;;;;;20.52;8.05;;;;;;;0.18;72.35;102261.69;4998120;28;20094;-48
2023/01/23 08:14:38;;;;;;;22.02;11.93;;;;;;;0.33;72.72;102263.59;4995947;28;20050;-46
2023/01/23 08:17:04;;;;;;;19.33;11.15;;;;;;;0.44;72.93;102262.75;4997505;28;20078;-47
2023/01/23 08:19:31;;;;;;;18.45;10.93;;;;;;;0.62;72.29;102263.25;4992042;28;20123;-49
2023/01/23 08:21:57;;;;;;;21.08;8.57;;;;;;;0.86;72.30;102259.81;4994730;28;20351;-47
2023/01/23 08:24:24;;;;;;;21.15;11.80;;;;;;;1.11;73.27;102264.13;4995045;28;20045;-45
2023/01/23 08:26:51;;;;;;;26.50;11.68;;;;;;;1.40;71.83;102270.44;4994132;28;20074;-47
2023/01/23 08:29:18;;;;;;;24.20;12.05;;;;;;;1.79;71.95;102263.78;4997269;28;20050;-47
2023/01/23 08:31:44;;;;;;;20.48;11.52;;;;;;;2.17;71.62;102268.88;5001276;28;20141;-47
2023/01/23 08:34:11;;;;;;;20.52;8.35;;;;;;;2.48;71.67;102273.50;5002246;28;20038;-46
2023/01/23 08:36:38;;;;;;;19.60;10.88;;;;;;;2.79;70.52;102260.16;5007079;28;20054;-47
2023/01/23 08:39:05;;;;;;;20.08;10.68;;;;;;;3.40;71.27;102271.63;5002231;28;20038;-46
2023/01/23 08:41:32;;;;;;;21.67;11.50;;;;;;;3.98;70.26;102265.75;5001333;28;20108;-47
2023/01/23 08:44:00;;;;;;;19.95;9.77;;;;;;;4.42;69.75;102275.13;5004669;28;20050;-48
2023/01/23 08:46:28;;;;;;;22.13;12.05;;;;;;;4.69;68.44;102275.84;5004472;28;20133;-46
2023/01/23 08:48:55;;;;;;;24.67;12.13;;;;;;;4.87;67.78;102276.00;5001157;28;20628;-47
2023/01/23 08:51:21;;;;;;;25.67;12.52;;;;;;;5.03;67.42;102284.56;5001700;28;20125;-47
2023/01/23 08:53:51;;;;;;;22.33;11.68;;;;;;;5.47;68.05;102289.53;5005840;28;20054;-49
2023/01/23 08:56:20;;;;;;;19.20;10.68;;;;;;;5.81;67.22;102299.03;5006873;28;20046;-46
2023/01/23 08:58:46;;;;;;;17.45;10.27;;;;;;;5.99;67.18;102300.84;5001438;28;20692;-46
2023/01/23 09:01:15;;;;;;;19.05;11.25;;;;;;;6.12;66.73;102295.53;5002374;28;20123;-48
2023/01/23 09:03:42;;;;;;;21.55;11.15;;;;;;;6.45;65.57;102301.47;5004764;28;20403;-48
2023/01/23 09:06:11;;;;;;;18.48;10.80;;;;;;;6.63;65.30;102292.09;5005551;28;20482;-46
2023/01/23 09:08:37;;;;;;;19.77;11.10;;;;;;;6.83;65.44;102289.63;4998576;28;20077;-47
2023/01/23 09:11:06;;;;;;;18.98;9.68;;;;;;;6.97;65.24;102286.81;5001552;28;20500;-48
2023/01/23 09:13:33;;;;;;;20.60;10.43;;;;;;;7.02;64.87;102286.25;5001857;28;20049;-47
2023/01/23 09:16:01;;;;;;;16.63;10.10;;;;;;;7.03;65.35;102279.41;5000151;28;20054;-47
2023/01/23 09:18:27;;;;;;;16.33;9.63;;;;;;;6.94;64.58;102283.31;5003522;28;20740;-48
2023/01/23 09:20:55;;;;;;;20.08;11.07;;;;;;;6.76;64.19;102284.97;5004310;28;20053;-46
2023/01/23 09:23:22;;;;;;;19.08;11.32;;;;;;;6.51;63.74;102276.91;4999694;28;20111;-47
2023/01/23 09:25:48;;;;;;;18.52;9.55;;;;;;;6.27;63.67;102276.56;5001883;28;20117;-48
2023/01/23 09:28:15;;;;;;;17.55;10.05;;;;;;;6.13;65.10;102266.44;5005515;28;20046;-46
2023/01/23 09:30:42;;;;;;;18.88;10.77;;;;;;;6.12;64.30;102272.38;4982622;28;20185;-46
2023/01/23 09:33:09;;;;;;;16.20;10.18;;;;;;;6.23;64.19;102275.53;5001140;28;20141;-46
2023/01/23 09:35:35;;;;;;;22.23;13.80;;;;;;;6.28;64.93;102278.31;5001201;28;20074;-47
2023/01/23 09:38:05;;;;;;;19.15;9.88;;;;;;;6.43;64.50;102286.81;4998834;28;20053;-47
2023/01/23 09:40:37;;;;;;;19.02;10.40;;;;;;;6.60;63.66;102291.94;5004279;28;20108;-46
2023/01/23 09:54:15;;;;;;;18.50;9.40;;;;;;;7.04;63.23;102294.03;5053668;28;20377;-47
2023/01/23 09:56:45;;;;;;;20.58;10.25;;;;;;;6.93;63.31;102294.41;5022623;28;20133;-48
2023/01/23 09:59:16;;;;;;;;;;;;;;;6.77;63.79;102294.47;5004195;28;20108;-48
2023/01/23 10:01:43;;;;;;;18.15;8.75;;;;;;;6.76;63.14;102298.72;5009964;28;19922;-47
2023/01/23 10:04:13;;;;;;;18.60;9.20;;;;;;;6.76;63.66;102303.00;5002907;28;20115;-47
2023/01/23 10:06:57;;;;;;;18.42;8.23;;;;;;;6.72;63.53;102301.09;5008115;28;20050;-48
2023/01/23 10:20:48;;;;;;;16.02;9.65;;;;;;;6.69;63.67;102301.84;4995041;27;20423;-47
2023/01/23 10:25:54;;;;;;;15.90;8.73;;;;;;;7.55;62.43;102311.03;5013806;28;20415;-48
2023/01/23 10:28:34;;;;;;;17.08;7.60;;;;;;;7.81;61.45;102317.34;4980814;28;20526;-45
2023/01/23 10:31:06;;;;;;;16.20;8.10;;;;;;;8.00;60.43;102312.16;4981377;28;20652;-47
2023/01/23 10:33:41;;;;;;;15.02;7.72;;;;;;;8.18;59.33;102312.09;4975104;28;20443;-47
2023/01/23 10:36:21;;;;;;;18.02;8.63;;;;;;;8.52;58.67;102317.81;4976433;28;20154;-48
2023/01/23 10:39:12;;;;;;;14.93;7.63;;;;;;;9.02;58.20;102314.72;4979913;28;20050;-50
2023/01/23 10:41:38;;;;;;;17.50;8.20;;;;;;;9.52;59.29;102317.50;4992546;28;20073;-49
2023/01/23 10:44:14;;;;;;;17.23;8.20;;;;;;;9.93;58.15;102312.13;4984590;28;20043;-47
2023/01/23 10:46:48;;;;;;;15.27;8.60;;;;;;;10.11;56.72;102303.25;4992710;28;20101;-47
2023/01/23 10:49:34;;;;;;;15.90;7.22;;;;;;;9.98;56.68;102310.59;4978246;28;20051;-47
2023/01/23 10:52:01;;;;;;;15.80;7.38;;;;;;;9.64;55.21;102306.75;4976421;28;20085;-48
2023/01/23 10:54:28;;;;;;;15.02;7.68;;;;;;;9.22;55.60;102308.63;4974695;28;20101;-49
2023/01/23 10:57:03;;;;;;;16.55;7.22;;;;;;;8.91;56.18;102299.66;4980890;28;20051;-47
2023/01/23 10:59:36;;;;;;;15.75;6.88;;;;;;;8.71;56.71;102294.56;4979056;28;20085;-47
2023/01/23 11:04:40;;;;;;;14.98;9.35;;;;;;;8.72;53.78;102301.47;5038801;28;20414;-48
2023/01/23 11:07:21;;;;;;;13.55;8.20;;;;;;;8.36;55.34;102296.50;5046661;28;20046;-47
2023/01/23 11:12:30;;;;;;;11.25;5.53;;;;;;;7.90;56.33;102298.84;5045263;28;20410;-47
2023/01/23 11:17:51;;;;;;;9.52;5.13;;;;;;;7.89;56.79;102302.25;5061970;27;20399;-49
2023/01/23 11:20:39;;;;;;;9.90;4.93;;;;;;;7.88;57.11;102303.06;5012994;28;20050;-48
2023/01/23 11:28:29;;;;;;;12.18;7.15;;;;;;;7.46;55.83;102304.63;5051831;27;20387;-48
2023/01/23 11:33:51;;;;;;;9.27;4.10;;;;;;;7.29;56.83;102306.41;5042434;28;20581;-48
2023/01/23 11:41:35;;;;;;;10.70;6.22;;;;;;;6.86;55.36;102300.06;5023395;27;20398;-47
2023/01/23 11:44:07;;;;;;;9.63;5.88;;;;;;;6.72;55.90;102295.94;5009833;28;20557;-47
2023/01/23 11:47:09;;;;;;;10.27;5.80;;;;;;;6.62;56.18;102299.75;5015199;28;20132;-49
2023/01/23 11:55:31;;;;;;;10.35;4.95;;;;;;;6.23;56.15;102290.97;5051112;28;20417;-46
2023/01/23 11:58:40;;;;;;;10.05;5.32;;;;;;;6.09;57.04;102292.84;5019827;28;20121;-47
2023/01/23 12:09:46;;;;;;;11.30;5.80;;;;;;;5.87;58.11;102281.38;5075892;28;20374;-47
2023/01/23 12:12:34;;;;;;;11.18;6.10;;;;;;;5.81;57.24;102278.47;5031220;28;20112;-47
2023/01/23 12:15:18;;;;;;;17.55;6.93;;;;;;;5.76;57.51;102279.91;5035428;28;20096;-48
2023/01/23 12:23:20;;;;;;;12.55;5.53;;;;;;;5.54;58.72;102276.19;5038295;27;20394;-46
2023/01/23 12:25:59;;;;;;;10.20;4.60;;;;;;;5.40;59.14;102268.63;5015634;28;20442;-47
2023/01/23 12:37:19;;;;;;;10.73;5.53;;;;;;;5.12;58.98;102261.97;5034624;28;21274;-47
2023/01/23 12:42:48;;;;;;;12.55;4.68;;;;;;;5.09;59.61;102259.22;5091532;27;20400;-46
2023/01/23 12:45:21;;;;;;;12.48;6.00;;;;;;;5.09;60.01;102263.47;5026239;28;20052;-48
2023/01/23 12:48:12;;;;;;;11.43;5.40;;;;;;;5.05;59.25;102259.88;5022172;28;20697;-50
2023/01/23 12:50:45;;;;;;;15.52;6.18;;;;;;;5.05;59.51;102259.88;5012721;28;20050;-46
2023/01/23 12:53:15;;;;;;;12.95;5.55;;;;;;;5.03;60.26;102258.88;5021619;28;20441;-46
2023/01/23 12:58:35;;;;;;;9.50;4.95;;;;;;;4.93;59.22;102256.63;5033901;28;20677;-45
2023/01/23 13:03:56;;;;;;;13.38;5.38;;;;;;;4.84;59.76;102257.88;5037556;28;20393;-47
2023/01/23 13:09:12;;;;;;;8.43;5.45;;;;;;;4.88;60.11;102262.38;5089111;27;20395;-45
2023/01/23 13:14:43;;;;;;;11.02;5.05;;;;;;;4.96;60.65;102269.63;5001204;28;20411;-47
2023/01/23 13:23:19;;;;;;;6.30;3.20;;;;;;;4.83;59.39;102256.06;5024441;28;20395;-49
2023/01/23 13:25:46;;;;;;;8.90;3.25;;;;;;;4.88;60.62;102252.09;4998853;28;20467;-46